Time;durP1;ratioP1;P1;durP2;ratioP2;P2;SDS_P1;SDS_P2;PMS_P1;PMS_P2;Temp;Humidity;BMP_temperature;BMP_pressure;BME280_temperature;BME280_humidity;BME280_pressure;Samples;Min_cycle;Max_cycle;Signal;HPM_P1;HPM_P2
2022/05/31 00:00:03;;;;;;;39.78;24.13;;;436.10;2355.20;;;;;;5079650;28;20053;-74
2022/05/31 00:02:28;;;;;;;40.72;24.13;;;460.80;2380.80;;;;;;5081198;28;20528;-74
2022/05/31 00:04:54;;;;;;;39.08;24.08;;;460.90;2380.80;;;;;;5080276;28;20036;-73
2022/05/31 00:07:20;;;;;;;42.70;24.25;;;436.10;2355.20;;;;;;5082231;28;20508;-73
2022/05/31 00:09:47;;;;;;;40.67;24.42;;;436.10;2355.20;;;;;;5081133;28;20111;-75
2022/05/31 00:12:14;;;;;;;36.78;25.55;;;436.10;2355.20;;;;;;5082832;28;20501;-73
2022/05/31 00:14:41;;;;;;;39.78;25.67;;;436.10;2355.20;;;;;;5079983;28;20021;-73
2022/05/31 00:17:07;;;;;;;33.55;23.05;;;436.10;2355.20;;;;;;5081247;28;20055;-74
2022/05/31 00:19:33;;;;;;;42.30;25.13;;;436.10;2355.20;;;;;;5081514;28;20493;-73
2022/05/31 00:22:11;;;;;;;38.38;25.58;;;436.00;2355.20;;;;;;5080050;28;20021;-73
2022/05/31 00:24:39;;;;;;;43.90;27.40;;;436.10;2355.20;;;;;;5079898;28;20013;-74
2022/05/31 00:27:06;;;;;;;38.28;26.33;;;436.00;2355.20;;;;;;5083769;28;20020;-75
2022/05/31 00:29:32;;;;;;;38.85;27.17;;;436.00;2355.20;;;;;;5084742;28;20153;-74
2022/05/31 00:32:00;;;;;;;39.50;25.40;;;435.90;2355.20;;;;;;5083410;28;20020;-75
2022/05/31 00:34:26;;;;;;;36.15;23.45;;;436.00;2355.20;;;;;;5085046;28;20024;-75
2022/05/31 00:36:52;;;;;;;33.88;21.63;;;436.10;2355.20;;;;;;5085063;28;20105;-74
2022/05/31 00:39:18;;;;;;;27.20;18.73;;;436.10;2355.20;;;;;;5083377;28;20450;-73
2022/05/31 00:42:04;;;;;;;27.35;18.65;;;436.10;2355.20;;;;;;5084917;28;20020;-73
2022/05/31 00:44:30;;;;;;;30.00;19.55;;;436.10;2355.20;;;;;;5084417;28;20043;-73
2022/05/31 00:47:00;;;;;;;31.77;20.63;;;436.10;2355.20;;;;;;5083203;28;20373;-75
2022/05/31 00:49:31;;;;;;;32.42;19.30;;;436.10;2355.20;;;;;;5083677;28;20020;-76
2022/05/31 00:52:01;;;;;;;31.73;18.60;;;436.10;2355.20;;;;;;5083227;28;20021;-74
2022/05/31 00:54:30;;;;;;;30.05;19.17;;;436.10;2355.20;;;;;;5084301;28;20020;-74
2022/05/31 00:56:57;;;;;;;33.95;20.17;;;460.80;2380.80;;;;;;5085083;28;20096;-73
2022/05/31 00:59:32;;;;;;;35.95;19.77;;;460.80;2380.80;;;;;;5082848;28;20082;-73
2022/05/31 01:01:58;;;;;;;33.28;19.92;;;460.80;2380.80;;;;;;5082828;28;20051;-74
2022/05/31 01:04:36;;;;;;;31.15;19.30;;;460.80;2380.80;;;;;;5082164;28;20417;-75
2022/05/31 01:07:02;;;;;;;33.33;18.50;;;460.80;2380.80;;;;;;5084754;28;20020;-73
2022/05/31 01:09:30;;;;;;;32.50;19.00;;;460.80;2380.80;;;;;;5083802;28;20462;-74
2022/05/31 01:11:57;;;;;;;31.85;20.45;;;460.90;2380.80;;;;;;5082640;28;20436;-73
2022/05/31 01:14:24;;;;;;;31.90;19.98;;;460.80;2380.80;;;;;;5082157;28;20078;-73
2022/05/31 01:16:55;;;;;;;28.15;17.48;;;460.80;2380.80;;;;;;5082351;28;20052;-74
2022/05/31 01:22:05;;;;;;;34.38;20.77;;;436.10;2355.20;;;;;;5083136;28;20117;-74
2022/05/31 01:24:37;;;;;;;30.60;19.20;;;436.10;2355.20;;;;;;5083370;28;20048;-74
2022/05/31 01:27:22;;;;;;;38.55;20.55;;;436.10;2355.20;;;;;;5082672;28;20040;-73
2022/05/31 01:29:49;;;;;;;28.77;18.85;;;436.10;2355.20;;;;;;5082871;28;20053;-73
2022/05/31 01:32:15;;;;;;;33.67;18.42;;;460.80;2380.80;;;;;;5082875;28;20020;-74
2022/05/31 01:34:53;;;;;;;31.77;18.85;;;460.80;2380.80;;;;;;5084541;28;20122;-73
2022/05/31 01:37:32;;;;;;;31.40;19.15;;;436.10;2355.20;;;;;;5083058;28;20036;-73
2022/05/31 01:40:02;;;;;;;29.08;18.27;;;460.80;2380.80;;;;;;5082133;28;20033;-74
2022/05/31 01:42:35;;;;;;;27.95;19.65;;;460.80;2380.80;;;;;;5082870;28;20017;-73
2022/05/31 01:45:08;;;;;;;31.10;17.90;;;460.80;2380.80;;;;;;5082536;28;20025;-73
2022/05/31 01:47:36;;;;;;;29.88;20.10;;;460.80;2380.80;;;;;;5081814;28;20028;-73
2022/05/31 01:50:06;;;;;;;32.17;20.35;;;436.10;2355.20;;;;;;5083709;28;20043;-74
2022/05/31 01:52:33;;;;;;;31.05;20.63;;;436.10;2355.20;;;;;;5083735;28;20025;-74
2022/05/31 01:54:59;;;;;;;31.60;20.17;;;460.80;2380.80;;;;;;5084208;28;20069;-73
2022/05/31 01:57:26;;;;;;;35.80;21.00;;;460.90;2380.80;;;;;;5082580;28;20048;-73
2022/05/31 01:59:59;;;;;;;29.80;18.58;;;460.90;2380.80;;;;;;5082083;28;20493;-73
2022/05/31 02:02:25;;;;;;;33.13;18.88;;;460.90;2380.80;;;;;;5082384;28;20377;-73
2022/05/31 02:04:51;;;;;;;31.55;19.42;;;460.80;2380.80;;;;;;5082244;28;20020;-73
2022/05/31 02:07:25;;;;;;;32.25;20.52;;;460.80;2380.80;;;;;;5084061;28;20099;-73
2022/05/31 02:09:52;;;;;;;33.45;18.60;;;460.80;2380.80;;;;;;5083231;28;20544;-73
2022/05/31 02:12:20;;;;;;;35.05;21.58;;;460.90;2380.80;;;;;;5081765;28;20044;-73
2022/05/31 02:14:46;;;;;;;37.10;21.45;;;460.90;2380.80;;;;;;5082815;28;20020;-73
2022/05/31 02:17:12;;;;;;;32.15;20.40;;;461.00;2380.80;;;;;;5083334;28;20023;-73
2022/05/31 02:19:39;;;;;;;34.40;18.95;;;461.00;2380.80;;;;;;5079820;28;20068;-74
2022/05/31 02:22:08;;;;;;;30.63;20.80;;;460.80;2380.80;;;;;;5083053;28;20027;-73
2022/05/31 02:24:34;;;;;;;30.42;20.00;;;460.90;2380.80;;;;;;5083250;28;20017;-73
2022/05/31 02:27:01;;;;;;;33.92;21.63;;;460.90;2380.80;;;;;;5083301;28;20031;-73
2022/05/31 02:29:30;;;;;;;31.20;20.90;;;460.90;2380.80;;;;;;5081987;28;20513;-73
2022/05/31 02:32:00;;;;;;;32.88;22.00;;;460.90;2380.80;;;;;;5081288;28;20030;-73
2022/05/31 02:34:30;;;;;;;35.30;21.20;;;460.90;2380.80;;;;;;5081977;28;20017;-74
2022/05/31 02:36:56;;;;;;;31.10;21.48;;;460.90;2380.80;;;;;;5081191;28;20012;-73
2022/05/31 02:39:22;;;;;;;37.20;22.10;;;460.90;2380.80;;;;;;5081308;28;20115;-73
2022/05/31 02:41:48;;;;;;;33.15;19.90;;;461.00;2380.80;;;;;;5082139;28;20019;-74
2022/05/31 02:44:15;;;;;;;38.33;22.13;;;460.80;2380.80;;;;;;5082824;28;20025;-73
2022/05/31 02:46:41;;;;;;;34.70;21.45;;;461.10;2380.80;;;;;;5081038;28;20104;-74
2022/05/31 02:49:07;;;;;;;42.17;23.08;;;461.00;2380.80;;;;;;5081952;28;20020;-74
2022/05/31 02:51:37;;;;;;;35.35;21.75;;;461.10;2380.80;;;;;;5082659;28;20008;-74
2022/05/31 02:54:04;;;;;;;38.00;22.00;;;461.20;2380.80;;;;;;5080797;28;20075;-73
2022/05/31 02:56:29;;;;;;;36.15;21.95;;;461.10;2380.80;;;;;;5082140;28;20013;-74
2022/05/31 02:58:56;;;;;;;40.25;22.25;;;461.00;2380.80;;;;;;5082235;28;20398;-73
2022/05/31 03:01:25;;;;;;;39.80;20.77;;;460.90;2380.80;;;;;;5080948;28;20130;-74
2022/05/31 03:03:51;;;;;;;41.10;22.05;;;460.90;2380.80;;;;;;5081685;28;20016;-74
2022/05/31 03:06:21;;;;;;;38.05;22.77;;;461.00;2380.80;;;;;;5082794;28;20630;-74
2022/05/31 03:08:48;;;;;;;31.35;21.13;;;461.10;2380.80;;;;;;5081499;28;20021;-73
2022/05/31 03:11:30;;;;;;;33.33;22.17;;;461.10;2380.80;;;;;;5081237;28;20016;-73
2022/05/31 03:14:31;;;;;;;35.38;22.23;;;461.20;2380.80;;;;;;5082471;28;20115;-76
2022/05/31 03:17:08;;;;;;;34.88;21.63;;;461.20;2380.80;;;;;;5082711;28;20013;-74
2022/05/31 03:19:40;;;;;;;39.22;23.10;;;461.20;2380.80;;;;;;5081934;28;20032;-73
2022/05/31 03:22:11;;;;;;;38.38;21.55;;;461.10;2380.80;;;;;;5080726;28;20013;-74
2022/05/31 03:24:54;;;;;;;38.58;23.55;;;461.20;2380.80;;;;;;5080987;28;20012;-73
2022/05/31 03:27:20;;;;;;;38.53;24.33;;;461.00;2380.80;;;;;;5082550;28;20028;-73
2022/05/31 03:29:47;;;;;;;40.67;23.27;;;461.10;2380.80;;;;;;5080724;28;20102;-73
2022/05/31 03:32:15;;;;;;;35.72;23.20;;;461.10;2380.80;;;;;;5081288;28;20461;-73
2022/05/31 03:34:41;;;;;;;38.10;23.40;;;461.00;2380.80;;;;;;5082333;28;20028;-74
2022/05/31 03:37:06;;;;;;;40.83;21.90;;;461.00;2380.80;;;;;;5080888;28;20377;-74
2022/05/31 03:39:32;;;;;;;41.30;23.77;;;460.90;2380.80;;;;;;5081210;28;20024;-73
2022/05/31 03:41:58;;;;;;;42.17;23.88;;;460.90;2380.80;;;;;;5082422;28;20073;-75
2022/05/31 03:44:23;;;;;;;41.67;24.85;;;460.90;2380.80;;;;;;5080224;28;20672;-73
2022/05/31 03:46:49;;;;;;;44.72;25.63;;;460.90;2380.80;;;;;;5081973;28;20485;-73
2022/05/31 03:49:15;;;;;;;42.40;25.23;;;460.90;2380.80;;;;;;5081642;28;20025;-73
2022/05/31 03:51:42;;;;;;;37.95;24.35;;;460.90;2380.80;;;;;;5080275;28;20541;-73
2022/05/31 03:54:07;;;;;;;39.38;23.23;;;460.80;2380.80;;;;;;5082009;28;20021;-73
2022/05/31 03:56:35;;;;;;;42.65;24.15;;;460.80;2380.80;;;;;;5081540;28;20035;-73
2022/05/31 03:59:01;;;;;;;38.17;23.85;;;436.10;2355.20;;;;;;5079746;28;20032;-73
2022/05/31 04:01:28;;;;;;;37.50;23.83;;;436.10;2355.20;;;;;;5083492;28;20096;-74
2022/05/31 04:03:54;;;;;;;37.25;23.73;;;460.80;2380.80;;;;;;5085342;28;20436;-74
2022/05/31 04:06:20;;;;;;;40.47;24.23;;;460.90;2380.80;;;;;;5084235;28;20016;-74
2022/05/31 04:08:46;;;;;;;38.00;23.17;;;461.00;2380.80;;;;;;5084201;28;20091;-74
2022/05/31 04:11:12;;;;;;;38.80;24.33;;;461.00;2380.80;;;;;;5085223;28;20016;-75
2022/05/31 04:13:38;;;;;;;40.00;24.30;;;461.00;2380.80;;;;;;5083187;28;20514;-74
2022/05/31 04:16:10;;;;;;;37.50;23.98;;;461.10;2380.80;;;;;;5084620;28;20050;-74
2022/05/31 04:18:37;;;;;;;45.03;25.20;;;461.20;2380.80;;;;;;5085255;28;20025;-74
2022/05/31 04:21:06;;;;;;;41.95;25.75;;;461.20;2380.80;;;;;;5080646;28;20064;-74
2022/05/31 04:26:16;;;;;;;50.72;25.02;;;461.10;2380.80;;;;;;5095489;28;20142;-74
2022/05/31 04:28:42;;;;;;;45.10;24.98;;;461.00;2380.80;;;;;;5094556;28;20055;-73
2022/05/31 04:31:08;;;;;;;45.83;24.88;;;461.20;2380.80;;;;;;5107657;28;20020;-74
2022/05/31 04:33:35;;;;;;;43.85;26.50;;;461.50;2380.80;;;;;;5101117;28;20477;-74
2022/05/31 04:36:03;;;;;;;46.67;26.05;;;461.20;2380.80;;;;;;5084931;28;20017;-72
2022/05/31 04:38:29;;;;;;;53.42;26.70;;;461.10;2380.80;;;;;;5083401;28;20462;-76
2022/05/31 04:40:55;;;;;;;61.38;29.98;;;460.90;2380.80;;;;;;5093514;28;20050;-74
2022/05/31 04:43:21;;;;;;;53.42;28.88;;;461.00;2380.80;;;;;;5095066;28;20016;-73
2022/05/31 04:45:47;;;;;;;58.72;29.45;;;460.80;2380.80;;;;;;5091350;28;20031;-73
2022/05/31 04:48:13;;;;;;;51.42;28.60;;;460.90;2380.80;;;;;;5085518;28;20558;-74
2022/05/31 04:50:39;;;;;;;59.70;31.60;;;460.80;2380.80;;;;;;5086701;28;20020;-76
2022/05/31 04:53:05;;;;;;;53.10;27.55;;;435.90;2355.20;;;;;;5093620;28;20129;-77
2022/05/31 04:55:31;;;;;;;50.58;28.35;;;435.80;2355.20;;;;;;5094583;28;20012;-75
2022/05/31 04:57:56;;;;;;;50.00;28.98;;;435.60;2355.20;;;;;;5092939;28;20055;-77
2022/05/31 05:00:22;;;;;;;59.80;30.13;;;435.50;2355.20;;;;;;5092579;28;20442;-76
2022/05/31 05:02:48;;;;;;;59.85;33.17;;;435.20;2355.20;;;;;;5094666;28;20013;-77
2022/05/31 05:05:14;;;;;;;54.35;30.40;;;435.50;2355.20;;;;;;5090971;28;20069;-75
2022/05/31 05:07:40;;;;;;;57.80;31.20;;;435.30;2355.20;;;;;;5083295;28;20078;-76
2022/05/31 05:10:07;;;;;;;58.05;29.85;;;435.30;2355.20;;;;;;5081617;28;20033;-77
2022/05/31 05:12:33;;;;;;;62.80;30.75;;;435.40;2355.20;;;;;;5074596;28;20024;-78
2022/05/31 05:14:59;;;;;;;53.03;30.75;;;435.60;2355.20;;;;;;5082600;28;20062;-77
2022/05/31 05:17:25;;;;;;;55.97;29.50;;;435.60;2355.20;;;;;;5092178;28;20148;-76
2022/05/31 05:19:51;;;;;;;58.90;31.48;;;435.60;2355.20;;;;;;5093019;28;20276;-77
2022/05/31 05:22:17;;;;;;;55.75;29.88;;;435.60;2355.20;;;;;;5094093;28;20027;-77
2022/05/31 05:24:43;;;;;;;62.40;32.03;;;435.40;2355.20;;;;;;5092837;28;20036;-75
2022/05/31 05:27:09;;;;;;;52.72;29.95;;;435.40;2355.20;;;;;;5092018;28;20040;-77
2022/05/31 05:32:19;;;;;;;65.07;32.67;;;435.60;2355.20;;;;;;5091702;28;20435;-78
2022/05/31 05:34:49;;;;;;;59.25;31.10;;;435.80;2355.20;;;;;;5094099;28;20024;-78
2022/05/31 05:37:16;;;;;;;55.30;29.70;;;435.90;2355.20;;;;;;5092945;28;20489;-78
2022/05/31 05:39:43;;;;;;;62.45;31.40;;;435.90;2355.20;;;;;;5093930;28;20182;-78
2022/05/31 05:42:09;;;;;;;51.00;31.15;;;436.10;2355.20;;;;;;5092671;28;20027;-77
2022/05/31 05:44:34;;;;;;;57.20;30.67;;;460.80;2380.80;;;;;;5093453;28;20024;-77
2022/05/31 05:47:09;;;;;;;52.13;29.60;;;460.80;2380.80;;;;;;5092427;28;20017;-77
2022/05/31 05:49:34;;;;;;;51.35;29.58;;;460.90;2380.80;;;;;;5092617;28;20024;-79
2022/05/31 05:52:04;;;;;;;54.17;30.08;;;460.90;2380.80;;;;;;5093562;28;20097;-76
2022/05/31 05:54:30;;;;;;;52.85;30.10;;;461.00;2380.80;;;;;;5092418;28;20024;-76
2022/05/31 05:56:56;;;;;;;59.72;30.02;;;461.00;2380.80;;;;;;5093221;28;20027;-76
2022/05/31 05:59:23;;;;;;;60.53;32.08;;;461.00;2380.80;;;;;;5093361;28;20069;-75
2022/05/31 06:01:53;;;;;;;60.47;30.83;;;461.00;2380.80;;;;;;5093156;28;20020;-76
2022/05/31 06:04:33;;;;;;;53.45;28.95;;;461.00;2380.80;;;;;;5093299;28;20020;-76
2022/05/31 06:07:28;;;;;;;54.47;31.00;;;461.20;2380.80;;;;;;5093369;28;20020;-75
2022/05/31 06:10:04;;;;;;;55.63;30.80;;;461.10;2380.80;;;;;;5092131;28;20073;-76
2022/05/31 06:12:34;;;;;;;52.58;30.25;;;461.10;2380.80;;;;;;5091892;28;20024;-76
2022/05/31 06:15:14;;;;;;;60.50;31.67;;;461.20;2380.80;;;;;;5093163;28;20028;-75
2022/05/31 06:17:44;;;;;;;46.53;26.65;;;461.30;2380.80;;;;;;5091879;28;20024;-76
2022/05/31 06:20:11;;;;;;;46.60;27.58;;;461.30;2380.80;;;;;;5092830;28;20032;-75
2022/05/31 06:22:40;;;;;;;53.17;29.10;;;461.40;2380.80;;;;;;5104940;28;20024;-77
2022/05/31 06:25:07;;;;;;;51.33;27.98;;;461.40;2380.80;;;;;;5092747;28;20020;-76
2022/05/31 06:27:32;;;;;;;46.17;27.88;;;461.50;2380.80;;;;;;5101926;28;20022;-76
2022/05/31 06:29:58;;;;;;;57.47;29.17;;;461.70;2380.80;;;;;;5097459;28;20056;-76
2022/05/31 06:32:24;;;;;;;46.20;27.92;;;486.40;2380.80;;;;;;5104641;28;20020;-76
2022/05/31 06:34:50;;;;;;;48.83;29.10;;;486.40;2380.80;;;;;;5092695;28;20059;-76
2022/05/31 06:37:17;;;;;;;48.22;27.80;;;461.70;2380.80;;;;;;5091503;28;20052;-75
2022/05/31 06:39:44;;;;;;;44.92;26.10;;;461.70;2380.80;;;;;;5092259;28;20450;-75
2022/05/31 06:42:11;;;;;;;50.17;28.55;;;486.60;2380.80;;;;;;5091243;28;20023;-76
2022/05/31 06:44:40;;;;;;;48.90;27.95;;;486.70;2380.80;;;;;;5092599;28;20045;-75
2022/05/31 06:47:06;;;;;;;51.63;28.75;;;486.80;2380.80;;;;;;5092320;28;20043;-76
2022/05/31 06:49:33;;;;;;;47.10;28.52;;;486.80;2380.80;;;;;;5092621;28;20032;-74
2022/05/31 06:57:37;;;;;;;48.72;28.00;;;486.70;2380.80;;;;;;5092660;28;20023;-74
2022/05/31 07:00:08;;;;;;;52.00;27.73;;;486.70;2380.80;;;;;;5090711;28;20043;-75
2022/05/31 07:02:34;;;;;;;53.25;28.77;;;486.60;2380.80;;;;;;5106323;28;20419;-74
2022/05/31 07:05:00;;;;;;;49.33;26.50;;;486.50;2380.80;;;;;;5090758;28;20161;-75
2022/05/31 07:07:26;;;;;;;48.15;27.65;;;486.60;2380.80;;;;;;5092005;28;20041;-74
2022/05/31 07:09:52;;;;;;;49.05;28.55;;;486.60;2380.80;;;;;;5092290;28;20020;-74
2022/05/31 07:12:18;;;;;;;47.17;27.63;;;486.60;2380.80;;;;;;5091895;28;20066;-75
2022/05/31 07:14:44;;;;;;;45.00;29.08;;;486.50;2380.80;;;;;;5092197;28;20039;-74
2022/05/31 07:17:10;;;;;;;46.28;24.85;;;486.50;2380.80;;;;;;5092022;28;20490;-75
2022/05/31 07:19:37;;;;;;;52.00;25.98;;;486.50;2380.80;;;;;;5090735;28;20032;-77
2022/05/31 07:22:03;;;;;;;46.28;26.48;;;486.60;2380.80;;;;;;5090834;28;20031;-76
2022/05/31 07:24:30;;;;;;;47.28;26.23;;;486.60;2380.80;;;;;;5090838;28;20382;-75
2022/05/31 07:26:56;;;;;;;54.33;28.20;;;486.70;2380.80;;;;;;5091806;28;20503;-76
2022/05/31 07:29:22;;;;;;;48.22;26.15;;;486.70;2380.80;;;;;;5090073;28;20056;-76
2022/05/31 07:31:47;;;;;;;46.35;27.08;;;486.60;2380.80;;;;;;5106548;28;20054;-79
2022/05/31 07:34:14;;;;;;;48.13;27.48;;;486.60;2380.80;;;;;;5091842;28;20016;-77
2022/05/31 07:36:41;;;;;;;50.45;29.55;;;486.70;2380.80;;;;;;5110024;28;20050;-77
2022/05/31 07:39:14;;;;;;;52.13;28.58;;;486.60;2380.80;;;;;;5094650;28;20039;-75
2022/05/31 07:41:40;;;;;;;48.78;27.17;;;486.60;2380.80;;;;;;5096050;28;20099;-74
2022/05/31 07:44:06;;;;;;;50.33;28.52;;;486.60;2380.80;;;;;;5095836;28;20099;-74
2022/05/31 07:46:32;;;;;;;50.78;28.10;;;486.50;2380.80;;;;;;5096067;28;20077;-73
2022/05/31 07:49:01;;;;;;;47.55;27.17;;;486.50;2380.80;;;;;;5095676;28;20024;-74
2022/05/31 07:51:27;;;;;;;51.85;28.23;;;486.40;2380.80;;;;;;5095986;28;20077;-78
2022/05/31 07:53:53;;;;;;;47.45;26.58;;;486.40;2380.80;;;;;;5094471;28;20503;-74
2022/05/31 07:56:21;;;;;;;54.00;30.50;;;486.50;2380.80;;;;;;5095820;28;20115;-78
2022/05/31 07:58:47;;;;;;;52.40;28.80;;;486.50;2380.80;;;;;;5094519;28;20039;-77
2022/05/31 08:01:15;;;;;;;48.13;30.95;;;486.70;2380.80;;;;;;5094410;28;20032;-76
2022/05/31 08:03:42;;;;;;;52.17;31.08;;;486.60;2380.80;;;;;;5108690;28;20079;-75
2022/05/31 08:06:11;;;;;;;49.30;30.48;;;486.60;2380.80;;;;;;5100577;28;20173;-76
2022/05/31 08:08:37;;;;;;;58.08;29.10;;;486.60;2380.80;;;;;;5103135;28;20091;-76
2022/05/31 08:11:17;;;;;;;54.78;31.92;;;486.60;2380.80;;;;;;5094081;28;20024;-75
2022/05/31 08:13:43;;;;;;;44.92;29.60;;;486.60;2380.80;;;;;;5095541;28;20051;-77
2022/05/31 08:16:11;;;;;;;51.60;29.27;;;486.50;2380.80;;;;;;5095464;28;20519;-77
2022/05/31 08:18:38;;;;;;;45.53;29.00;;;486.60;2380.80;;;;;;5095365;28;20028;-77
2022/05/31 08:21:13;;;;;;;51.95;29.38;;;486.70;2380.80;;;;;;5093426;28;20492;-76
2022/05/31 08:23:39;;;;;;;45.67;29.20;;;486.80;2380.80;;;;;;5093949;28;20024;-74
2022/05/31 08:26:05;;;;;;;49.60;29.63;;;486.70;2380.80;;;;;;5093731;28;20046;-76
2022/05/31 08:28:32;;;;;;;50.58;27.70;;;486.80;2380.80;;;;;;5093348;28;20046;-75
2022/05/31 08:31:04;;;;;;;46.10;26.48;;;486.90;2380.80;;;;;;5105828;28;20026;-76
2022/05/31 08:33:30;;;;;;;48.40;28.70;;;486.80;2380.80;;;;;;5097525;28;20051;-73
2022/05/31 08:35:57;;;;;;;46.13;27.75;;;486.80;2380.80;;;;;;5095051;28;20020;-75
2022/05/31 08:38:23;;;;;;;42.17;26.67;;;486.80;2380.80;;;;;;5095600;28;20540;-75
2022/05/31 08:41:20;;;;;;;55.42;28.63;;;486.90;2380.80;;;;;;5106040;28;20149;-75
2022/05/31 08:43:45;;;;;;;45.92;26.33;;;486.80;2380.80;;;;;;5094474;28;20016;-76
2022/05/31 08:46:14;;;;;;;50.38;28.55;;;486.90;2380.80;;;;;;5094327;28;20114;-75
2022/05/31 08:48:55;;;;;;;45.13;27.88;;;486.90;2380.80;;;;;;5093379;28;20031;-76
2022/05/31 08:57:05;;;;;;;45.63;27.85;;;487.00;2380.80;;;;;;5094777;28;20085;-75
2022/05/31 08:59:53;;;;;;;50.63;28.88;;;487.00;2380.80;;;;;;5092931;28;20032;-75
2022/05/31 09:02:23;;;;;;;50.83;29.63;;;487.10;2380.80;;;;;;5091590;28;20024;-75
2022/05/31 09:05:03;;;;;;;49.88;28.75;;;487.10;2380.80;;;;;;5083876;28;20024;-75
2022/05/31 09:07:46;;;;;;;50.65;29.20;;;486.90;2380.80;;;;;;5094378;28;20020;-75
2022/05/31 09:10:26;;;;;;;52.25;29.60;;;487.00;2380.80;;;;;;5094342;28;20089;-76
2022/05/31 09:13:04;;;;;;;54.60;31.08;;;486.80;2380.80;;;;;;5093067;28;20032;-75
2022/05/31 09:15:49;;;;;;;47.10;29.52;;;487.00;2380.80;;;;;;5094250;28;20051;-75
2022/05/31 09:18:42;;;;;;;55.85;30.63;;;487.00;2380.80;;;;;;5094200;28;20031;-78
2022/05/31 09:21:22;;;;;;;57.00;31.98;;;487.00;2380.80;;;;;;5094008;28;20024;-75
2022/05/31 09:23:49;;;;;;;55.28;32.42;;;487.10;2380.80;;;;;;5093033;28;20021;-76
2022/05/31 09:26:40;;;;;;;62.13;34.58;;;487.00;2380.80;;;;;;5092792;28;20484;-76
2022/05/31 09:29:15;;;;;;;56.00;32.22;;;487.10;2380.80;;;;;;5092454;28;20494;-76
2022/05/31 09:31:49;;;;;;;61.38;33.63;;;487.10;2380.80;;;;;;5107074;28;20027;-76
2022/05/31 09:34:24;;;;;;;55.75;32.17;;;487.10;2380.80;;;;;;5092536;28;20024;-77
2022/05/31 09:37:17;;;;;;;51.08;31.08;;;487.00;2380.80;;;;;;5092545;28;20024;-76
2022/05/31 09:40:07;;;;;;;53.72;31.10;;;487.00;2380.80;;;;;;5092523;28;20063;-76
2022/05/31 09:42:40;;;;;;;60.75;32.35;;;487.00;2380.80;;;;;;5092604;28;20016;-75
2022/05/31 09:45:17;;;;;;;50.03;31.52;;;487.10;2380.80;;;;;;5092109;28;20030;-77
2022/05/31 09:47:43;;;;;;;59.45;34.33;;;487.10;2380.80;;;;;;5092573;28;20114;-77
2022/05/31 09:50:09;;;;;;;63.28;35.65;;;487.10;2380.80;;;;;;5092102;28;20115;-77
2022/05/31 09:52:39;;;;;;;54.25;34.30;;;487.10;2380.80;;;;;;5092315;28;20034;-77
2022/05/31 09:58:27;;;;;;;65.10;32.10;;;487.20;2380.80;;;;;;5093123;28;20137;-76
2022/05/31 10:00:58;;;;;;;64.85;34.88;;;487.10;2380.80;;;;;;5093012;28;20385;-76
2022/05/31 10:03:38;;;;;;;55.97;30.35;;;487.20;2380.80;;;;;;5103809;28;20060;-76
2022/05/31 10:06:14;;;;;;;57.92;30.58;;;487.20;2380.80;;;;;;5093577;28;20504;-78
2022/05/31 10:08:40;;;;;;;51.67;31.42;;;487.30;2380.80;;;;;;5093240;28;20131;-78
2022/05/31 10:11:12;;;;;;;52.90;31.00;;;512.00;2380.80;;;;;;5091944;28;20067;-77
2022/05/31 10:13:55;;;;;;;55.50;32.33;;;512.00;2380.80;;;;;;5093136;28;20024;-77
2022/05/31 10:16:35;;;;;;;55.72;32.13;;;512.10;2380.80;;;;;;5092979;28;20017;-77
2022/05/31 10:19:08;;;;;;;56.72;34.83;;;512.10;2380.80;;;;;;5091764;28;20028;-76
2022/05/31 10:21:42;;;;;;;60.20;34.28;;;512.10;2380.80;;;;;;5091544;28;20389;-75
2022/05/31 10:24:20;;;;;;;60.00;34.08;;;512.10;2380.80;;;;;;5091515;28;20115;-76
2022/05/31 10:27:04;;;;;;;55.50;32.95;;;512.20;2380.80;;;;;;5091730;28;20566;-77
2022/05/31 10:29:36;;;;;;;54.92;32.15;;;512.20;2380.80;;;;;;5092617;28;20067;-79
2022/05/31 10:32:35;;;;;;;61.17;35.08;;;512.20;2380.80;;;;;;5107063;28;20099;-75
2022/05/31 10:35:11;;;;;;;61.08;35.00;;;512.30;2380.80;;;;;;5092853;28;20059;-76
2022/05/31 10:37:55;;;;;;;58.25;36.28;;;512.30;2380.80;;;;;;5091679;28;20043;-76
2022/05/31 10:40:43;;;;;;;61.70;36.13;;;512.30;2380.80;;;;;;5091194;28;20028;-75
2022/05/31 10:43:33;;;;;;;67.55;39.03;;;512.30;2380.80;;;;;;5091011;28;20024;-80
2022/05/31 10:46:03;;;;;;;61.83;38.10;;;512.20;2380.80;;;;;;5092276;28;20028;-74
2022/05/31 10:48:28;;;;;;;60.85;37.15;;;512.10;2380.80;;;;;;5092499;28;20024;-77
2022/05/31 10:51:07;;;;;;;59.78;37.28;;;512.20;2380.80;;;;;;5091284;28;20032;-77
2022/05/31 10:53:58;;;;;;;60.35;38.20;;;512.20;2380.80;;;;;;5091448;28;20035;-77
2022/05/31 10:57:02;;;;;;;63.20;37.92;;;512.20;2380.80;;;;;;5091678;28;20428;-80
2022/05/31 10:59:36;;;;;;;65.05;39.88;;;512.10;2380.80;;;;;;5090882;28;20040;-77
2022/05/31 11:02:21;;;;;;;68.00;40.15;;;512.10;2380.80;;;;;;5090952;28;20027;-76
2022/05/31 11:05:04;;;;;;;65.93;38.22;;;512.10;2380.80;;;;;;5092439;28;20059;-75
2022/05/31 11:07:37;;;;;;;68.28;39.83;;;512.10;2380.80;;;;;;5091176;28;20038;-74
2022/05/31 11:13:43;;;;;;;68.07;40.25;;;512.10;2380.80;;;;;;5092521;28;20051;-76
2022/05/31 11:16:13;;;;;;;71.88;41.70;;;512.10;2380.80;;;;;;5091931;28;20016;-76
2022/05/31 11:19:01;;;;;;;71.97;44.55;;;512.10;2380.80;;;;;;5092360;28;20082;-79
2022/05/31 11:21:35;;;;;;;74.97;41.83;;;512.20;2380.80;;;;;;5092042;28;20024;-74
2022/05/31 11:24:38;;;;;;;73.88;43.05;;;512.20;2380.80;;;;;;5092149;28;20024;-75
2022/05/31 11:27:10;;;;;;;78.22;44.40;;;512.30;2380.80;;;;;;5092187;28;20020;-76
2022/05/31 11:29:42;;;;;;;66.57;41.97;;;512.30;2380.80;;;;;;5090363;28;20048;-73
2022/05/31 11:32:17;;;;;;;61.63;41.03;;;512.30;2380.80;;;;;;5078325;28;20072;-74
2022/05/31 11:34:44;;;;;;;71.00;43.50;;;512.40;2380.80;;;;;;5092067;28;20085;-78
2022/05/31 11:37:31;;;;;;;67.15;40.85;;;512.30;2380.80;;;;;;5091802;28;20016;-76
2022/05/31 11:40:23;;;;;;;70.28;41.72;;;512.50;2380.80;;;;;;5091708;28;20106;-74
2022/05/31 11:42:54;;;;;;;79.00;44.20;;;512.50;2380.80;;;;;;5092108;28;20013;-77
2022/05/31 11:45:20;;;;;;;72.45;45.58;;;512.60;2380.80;;;;;;5091967;28;20492;-74
2022/05/31 11:48:26;;;;;;;69.65;45.40;;;512.80;2380.80;;;;;;5091699;28;20020;-77
2022/05/31 11:50:58;;;;;;;70.15;44.47;;;512.90;2380.80;;;;;;5098377;28;20016;-77
2022/05/31 11:53:48;;;;;;;69.50;44.33;;;537.80;2406.40;;;;;;5098664;28;20074;-76
2022/05/31 11:56:42;;;;;;;75.13;43.70;;;537.90;2406.40;;;;;;5091585;28;20031;-74
2022/05/31 11:59:21;;;;;;;73.95;45.30;;;538.10;2406.40;;;;;;5091178;28;20012;-73
2022/05/31 12:02:02;;;;;;;72.20;44.42;;;538.40;2406.40;;;;;;5091574;28;20111;-74
2022/05/31 12:04:50;;;;;;;69.63;43.08;;;563.30;2432.00;;;;;;5091827;28;20020;-74
2022/05/31 12:07:22;;;;;;;69.35;44.25;;;563.50;2432.00;;;;;;5091414;28;20050;-75
2022/05/31 12:10:00;;;;;;;73.63;46.22;;;563.40;2432.00;;;;;;5091637;28;20019;-76
2022/05/31 12:12:31;;;;;;;72.78;46.15;;;563.30;2432.00;;;;;;5091717;28;20021;-74
2022/05/31 12:15:09;;;;;;;73.05;45.20;;;563.30;2432.00;;;;;;5091680;28;20020;-75
2022/05/31 12:17:55;;;;;;;72.25;46.95;;;563.30;2432.00;;;;;;5091415;28;20032;-74
2022/05/31 12:20:26;;;;;;;73.57;47.80;;;538.50;2406.40;;;;;;5091218;28;20044;-75
2022/05/31 12:23:03;;;;;;;73.07;48.70;;;538.50;2406.40;;;;;;5093381;28;20028;-74
2022/05/31 12:25:39;;;;;;;70.45;46.90;;;538.50;2406.40;;;;;;5095155;28;20016;-74
2022/05/31 12:28:31;;;;;;;73.80;47.92;;;538.40;2406.40;;;;;;5095139;28;20062;-75
2022/05/31 12:31:00;;;;;;;74.70;46.65;;;538.30;2406.40;;;;;;5091175;28;20062;-77
2022/05/31 12:33:44;;;;;;;75.22;48.40;;;538.40;2406.40;;;;;;5095017;28;20458;-74
2022/05/31 12:36:13;;;;;;;77.85;48.85;;;538.50;2406.40;;;;;;5095209;28;20069;-75
2022/05/31 12:39:02;;;;;;;77.13;50.15;;;563.30;2432.00;;;;;;5094807;28;20043;-74
2022/05/31 12:41:47;;;;;;;68.53;47.30;;;563.50;2432.00;;;;;;5093564;28;20043;-74
2022/05/31 12:44:16;;;;;;;74.10;49.25;;;563.90;2432.00;;;;;;5095095;28;20466;-74